createdAt,value
2018-11-22T12:17:24.681Z,18.07
2018-11-22T12:19:53.363Z,19.03
2018-11-22T12:22:22.243Z,17.57
2018-11-22T12:25:15.544Z,18.30
2018-11-22T12:27:45.491Z,17.80
2018-11-22T12:30:18.441Z,18.70
2018-11-22T12:32:52.445Z,17.10
2018-11-22T12:35:31.991Z,19.00
2018-11-22T12:38:06.112Z,18.77
2018-11-22T12:40:35.743Z,16.80
2018-11-22T12:43:14.823Z,16.20
2018-11-22T12:45:49.491Z,17.17
2018-11-22T12:48:21.851Z,16.30
2018-11-22T12:50:50.555Z,16.77
2018-11-22T12:53:20.613Z,16.50
2018-11-22T12:55:50.318Z,16.77
2018-11-22T12:58:26.692Z,17.20
2018-11-22T13:00:55.685Z,16.60
2018-11-22T13:03:29.404Z,16.83
2018-11-22T13:06:02.755Z,15.20
2018-11-22T13:08:31.387Z,14.80
2018-11-22T13:11:00.074Z,16.83
2018-11-22T13:13:28.825Z,15.67
2018-11-22T13:15:57.448Z,15.93
2018-11-22T13:18:26.383Z,16.03
2018-11-22T13:20:56.925Z,16.60
2018-11-22T13:23:31.910Z,16.23
2018-11-22T13:26:01.662Z,16.57
2018-11-22T13:28:31.561Z,16.77
2018-11-22T13:31:00.206Z,16.87
2018-11-22T13:33:29.744Z,16.97
2018-11-22T13:35:58.450Z,17.00
2018-11-22T13:38:27.600Z,16.83
2018-11-22T13:40:56.252Z,16.67
2018-11-22T13:43:29.794Z,18.30
2018-11-22T13:45:58.649Z,21.63
2018-11-22T13:48:28.384Z,19.10
2018-11-22T13:50:56.993Z,17.40
2018-11-22T13:53:25.690Z,16.37
2018-11-22T13:55:54.442Z,15.73
2018-11-22T13:58:24.333Z,16.47
2018-11-22T14:00:53.082Z,15.83
2018-11-22T14:03:23.889Z,15.47
2018-11-22T14:05:53.755Z,16.23
2018-11-22T14:08:23.690Z,15.60
2018-11-22T14:10:52.801Z,16.00
2018-11-22T14:13:21.056Z,15.10
2018-11-22T14:15:49.836Z,15.30
2018-11-22T14:18:30.996Z,14.33
2018-11-22T14:21:03.869Z,15.50
2018-11-22T14:23:32.564Z,15.63
2018-11-22T14:26:07.558Z,15.23
2018-11-22T14:28:38.050Z,16.63
2018-11-22T14:31:20.698Z,15.57
2018-11-22T14:33:49.390Z,15.87
2018-11-22T14:36:23.596Z,16.87
2018-11-22T14:38:56.601Z,16.03
2018-11-22T14:41:25.323Z,16.67
2018-11-22T14:43:54.019Z,17.93
2018-11-22T14:46:33.506Z,16.83
2018-11-22T14:49:04.174Z,15.60
2018-11-22T14:51:39.947Z,15.63
2018-11-22T14:54:11.652Z,14.70
2018-11-22T14:56:40.374Z,16.13
2018-11-22T14:59:14.548Z,15.13
2018-11-22T15:01:45.072Z,15.33
2018-11-22T15:04:27.646Z,16.03
2018-11-22T15:06:56.535Z,16.00
2018-11-22T15:09:31.575Z,15.80
2018-11-22T15:12:01.216Z,16.87
2018-11-22T15:14:43.349Z,15.90
2018-11-22T15:17:12.081Z,18.33
2018-11-22T15:19:40.751Z,18.87
2018-11-22T15:22:09.430Z,17.87
2018-11-22T15:24:38.160Z,18.67
2018-11-22T15:27:06.759Z,18.97
2018-11-22T15:29:35.437Z,24.43
2018-11-22T15:32:04.297Z,23.87
2018-11-22T15:34:38.759Z,21.40
2018-11-22T15:37:14.516Z,19.53
2018-11-22T15:39:49.153Z,18.00
2018-11-22T15:42:17.738Z,16.47
2018-11-22T15:44:58.077Z,17.67
2018-11-22T15:47:30.211Z,18.00
2018-11-22T15:50:06.172Z,19.73
2018-11-22T15:52:35.833Z,18.70
2018-11-22T15:55:04.867Z,19.03
2018-11-22T15:57:33.637Z,16.13
2018-11-22T16:00:02.298Z,15.50
2018-11-22T16:02:31.017Z,16.30
2018-11-22T16:05:01.775Z,16.33
2018-11-22T16:07:34.410Z,18.00
2018-11-22T16:10:26.357Z,17.93
2018-11-22T16:12:50.413Z,17.43
2018-11-22T16:15:25.445Z,18.37
2018-11-22T16:17:54.481Z,17.80
2018-11-22T16:20:28.834Z,17.33
2018-11-22T16:22:57.320Z,20.00
2018-11-22T16:25:29.276Z,20.80
2018-11-22T16:28:00.747Z,21.40
2018-11-22T16:30:35.613Z,21.43
2018-11-22T16:33:12.364Z,21.17
2018-11-22T16:35:42.943Z,16.90
2018-11-22T16:38:11.533Z,17.77
2018-11-22T16:40:40.255Z,15.67
2018-11-22T16:43:16.487Z,16.10
2018-11-22T16:45:47.083Z,18.87
2018-11-22T16:48:15.955Z,15.90
2018-11-22T16:50:46.557Z,16.90
2018-11-22T16:53:23.278Z,16.90
2018-11-22T16:55:55.354Z,16.83
2018-11-22T16:58:24.069Z,18.70
2018-11-22T17:00:53.970Z,16.00
2018-11-22T17:03:24.686Z,17.33
2018-11-22T17:05:53.364Z,18.93
2018-11-22T17:08:22.985Z,22.90
2018-11-22T17:13:51.210Z,20.93
2018-11-22T17:16:43.270Z,20.73
2018-11-22T17:19:13.029Z,19.57
2018-11-22T17:21:41.656Z,20.20
2018-11-22T17:24:10.372Z,21.90
2018-11-22T17:26:39.013Z,22.70
2018-11-22T17:29:09.727Z,22.00
2018-11-22T17:31:51.108Z,22.83
2018-11-22T17:34:19.972Z,20.47
2018-11-22T17:37:00.218Z,21.70
2018-11-22T17:39:31.594Z,23.43
2018-11-22T17:42:00.664Z,22.33
2018-11-22T17:44:37.671Z,19.60
2018-11-22T17:47:09.909Z,17.67
2018-11-22T17:49:38.527Z,15.97
2018-11-22T17:52:07.487Z,16.87
2018-11-22T17:54:42.205Z,17.43
2018-11-22T17:57:12.741Z,16.83
2018-11-22T17:59:42.307Z,17.23
2018-11-22T18:02:15.099Z,18.67
2018-11-22T18:04:45.616Z,18.67
2018-11-22T18:07:26.327Z,21.03
2018-11-22T18:09:57.247Z,20.77
2018-11-22T18:12:30.330Z,20.57
2018-11-22T18:14:59.098Z,20.90
2018-11-22T18:17:27.902Z,19.90
2018-11-22T18:19:56.877Z,20.43
2018-11-22T18:22:31.893Z,21.37
2018-11-22T18:25:06.967Z,22.60
2018-11-22T18:27:47.841Z,21.17
2018-11-22T18:30:20.696Z,21.47
2018-11-22T18:32:50.594Z,23.00
2018-11-22T18:35:19.147Z,22.50
2018-11-22T18:37:48.710Z,22.00
2018-11-22T18:40:18.561Z,21.13
2018-11-22T18:42:56.489Z,20.57
2018-11-22T18:45:31.241Z,20.60
2018-11-22T18:48:00.532Z,19.17
2018-11-22T18:50:31.252Z,21.10
2018-11-22T18:53:03.484Z,19.50
2018-11-22T18:55:47.987Z,20.90
2018-11-22T18:58:16.845Z,20.80
2018-11-22T19:00:50.360Z,18.17
2018-11-22T19:03:19.935Z,18.97
2018-11-22T19:05:49.728Z,19.40
2018-11-22T19:08:18.515Z,19.10
2018-11-22T19:10:47.167Z,19.13
2018-11-22T19:13:16.044Z,17.67
2018-11-22T19:15:50.684Z,16.93
2018-11-22T19:18:19.319Z,18.53
2018-11-22T19:20:55.990Z,18.07
2018-11-22T19:23:24.464Z,18.17
2018-11-22T19:25:53.050Z,18.03
2018-11-22T19:28:22.661Z,18.13
2018-11-22T19:30:51.286Z,19.27
2018-11-22T19:33:22.113Z,20.20
2018-11-22T19:35:52.378Z,19.97
2018-11-22T19:38:21.129Z,19.80
2018-11-22T19:40:51.731Z,19.33
2018-11-22T19:43:21.165Z,19.67
2018-11-22T19:46:00.016Z,21.07
2018-11-22T19:48:32.811Z,20.40
2018-11-22T19:51:05.575Z,18.80
2018-11-22T19:53:31.931Z,19.73
2018-11-22T19:56:08.643Z,19.33
2018-11-22T19:58:37.179Z,19.43
2018-11-22T20:01:09.563Z,19.30
2018-11-22T20:03:38.300Z,18.53
2018-11-22T20:06:09.693Z,19.67
2018-11-22T20:08:45.195Z,19.77
2018-11-22T20:11:17.019Z,19.40
2018-11-22T20:13:45.796Z,17.60
2018-11-22T20:16:20.238Z,18.97
2018-11-22T20:18:48.779Z,18.87
2018-11-22T20:21:31.335Z,18.53
2018-11-22T20:24:02.805Z,19.10
2018-11-22T20:26:34.901Z,18.27
2018-11-22T20:29:04.123Z,17.50
2018-11-22T20:31:39.394Z,18.87
2018-11-22T20:34:07.959Z,19.17
2018-11-22T20:36:40.011Z,19.83
2018-11-22T20:39:22.485Z,18.30
2018-11-22T20:41:51.411Z,18.67
2018-11-22T20:44:22.197Z,18.80
2018-11-22T20:46:51.923Z,18.33
2018-11-22T20:49:21.058Z,18.10
2018-11-22T20:51:49.701Z,17.13
2018-11-22T20:54:18.481Z,17.80
2018-11-22T20:56:47.062Z,18.73
2018-11-22T20:59:15.797Z,16.80
2018-11-22T21:01:44.538Z,16.90
2018-11-22T21:04:13.092Z,17.77
2018-11-22T21:06:42.397Z,18.27
2018-11-22T21:09:12.174Z,18.07
2018-11-22T21:11:56.788Z,17.47
2018-11-22T21:14:31.781Z,17.53
2018-11-22T21:17:04.123Z,17.97
2018-11-22T21:19:38.257Z,16.43
2018-11-22T21:22:13.408Z,17.23
2018-11-22T21:24:44.190Z,17.43
2018-11-22T21:27:13.131Z,16.73
2018-11-22T21:29:41.859Z,16.90
2018-11-22T21:32:16.393Z,16.50
2018-11-22T21:34:52.103Z,16.93
2018-11-22T21:37:21.024Z,15.57
2018-11-22T21:39:49.660Z,16.13
2018-11-22T21:42:23.980Z,17.17
2018-11-22T21:44:53.554Z,17.30
2018-11-22T21:47:33.505Z,16.93
2018-11-22T21:50:09.612Z,17.27
2018-11-22T21:52:38.551Z,17.83
2018-11-22T21:55:10.408Z,18.17
2018-11-22T21:57:53.860Z,17.93
2018-11-22T22:00:33.499Z,18.77
2018-11-22T22:03:03.812Z,17.87
2018-11-22T22:05:35.631Z,17.90
2018-11-22T22:08:07.965Z,17.07
2018-11-22T22:10:43.707Z,16.67
2018-11-22T22:13:13.645Z,16.73
2018-11-22T22:15:42.499Z,16.87
2018-11-22T22:18:21.159Z,15.93
2018-11-22T22:20:45.685Z,16.57
2018-11-22T22:23:15.773Z,17.50
2018-11-22T22:25:45.581Z,17.63
2018-11-22T22:28:15.439Z,17.23
2018-11-22T22:30:59.959Z,16.10
2018-11-22T22:33:40.011Z,15.50
2018-11-22T22:36:13.363Z,16.57
2018-11-22T22:38:42.109Z,15.87
2018-11-22T22:41:14.679Z,16.40
2018-11-22T22:44:01.929Z,16.73
2018-11-22T22:46:32.793Z,15.87
2018-11-22T22:49:02.826Z,15.57
2018-11-22T22:51:32.449Z,16.33
2018-11-22T22:54:07.075Z,15.77
2018-11-22T22:56:37.605Z,16.13
2018-11-22T22:59:12.544Z,16.77
2018-11-22T23:01:41.177Z,17.10
2018-11-22T23:04:13.539Z,16.73
2018-11-22T23:06:42.447Z,17.23
2018-11-22T23:09:23.219Z,15.47
2018-11-22T23:11:51.845Z,17.23
2018-11-22T23:14:25.197Z,17.17
2018-11-22T23:16:53.819Z,17.23
2018-11-22T23:19:25.482Z,17.87
2018-11-22T23:21:55.337Z,17.67
2018-11-22T23:24:28.077Z,17.90
2018-11-22T23:26:56.803Z,19.10
2018-11-22T23:29:25.445Z,20.13
2018-11-22T23:31:54.935Z,19.10
2018-11-22T23:34:28.287Z,19.30
2018-11-22T23:37:07.668Z,19.20
2018-11-22T23:39:38.158Z,18.60
2018-11-22T23:42:12.589Z,16.83
2018-11-22T23:44:43.297Z,16.93
2018-11-22T23:47:12.858Z,17.27
2018-11-22T23:49:41.498Z,19.00
2018-11-22T23:52:12.171Z,20.67
2018-11-22T23:54:43.162Z,18.23
2018-11-22T23:57:19.607Z,17.63
2018-11-22T23:59:53.522Z,15.73
